sensor_id;sensor_type;location;lat;lon;timestamp;pressure;altitude;pressure_sealevel;temperature;humidity
34205;BME280;20471;49.680;20.074;2023-05-19T00:00:25;97999.34;;;8.73;84.37
34205;BME280;20471;49.680;20.074;2023-05-19T00:03:14;98002.91;;;8.68;84.35
34205;BME280;20471;49.680;20.074;2023-05-19T00:05:43;98004.12;;;8.64;84.27
34205;BME280;20471;49.680;20.074;2023-05-19T00:08:16;98009.70;;;8.58;84.31
34205;BME280;20471;49.680;20.074;2023-05-19T00:10:45;98010.62;;;8.55;84.48
34205;BME280;20471;49.680;20.074;2023-05-19T00:13:13;98010.64;;;8.52;84.60
34205;BME280;20471;49.680;20.074;2023-05-19T00:15:42;98000.82;;;8.49;84.48
34205;BME280;20471;49.680;20.074;2023-05-19T00:18:10;97994.37;;;8.47;84.58
34205;BME280;20471;49.680;20.074;2023-05-19T00:20:39;97992.91;;;8.47;84.68
34205;BME280;20471;49.680;20.074;2023-05-19T00:23:07;97992.35;;;8.47;84.79
34205;BME280;20471;49.680;20.074;2023-05-19T00:25:35;97991.70;;;8.48;85.05
34205;BME280;20471;49.680;20.074;2023-05-19T00:28:03;97994.84;;;8.50;84.98
34205;BME280;20471;49.680;20.074;2023-05-19T00:30:31;97997.39;;;8.52;84.84
34205;BME280;20471;49.680;20.074;2023-05-19T00:32:59;97998.60;;;8.52;84.78
34205;BME280;20471;49.680;20.074;2023-05-19T00:35:28;98002.73;;;8.54;84.77
34205;BME280;20471;49.680;20.074;2023-05-19T00:37:56;97997.61;;;8.54;84.85
34205;BME280;20471;49.680;20.074;2023-05-19T00:40:24;97995.04;;;8.56;84.81
34205;BME280;20471;49.680;20.074;2023-05-19T00:42:53;97993.46;;;8.57;84.76
34205;BME280;20471;49.680;20.074;2023-05-19T00:45:23;97989.20;;;8.58;84.82
34205;BME280;20471;49.680;20.074;2023-05-19T00:47:51;97987.31;;;8.59;84.78
34205;BME280;20471;49.680;20.074;2023-05-19T00:50:19;97983.21;;;8.59;84.83
34205;BME280;20471;49.680;20.074;2023-05-19T00:52:47;97979.45;;;8.59;84.84
34205;BME280;20471;49.680;20.074;2023-05-19T00:55:16;97977.65;;;8.60;84.95
34205;BME280;20471;49.680;20.074;2023-05-19T00:57:45;97977.98;;;8.61;85.01
34205;BME280;20471;49.680;20.074;2023-05-19T01:00:14;97971.92;;;8.60;84.91
34205;BME280;20471;49.680;20.074;2023-05-19T01:02:42;97968.13;;;8.61;84.87
34205;BME280;20471;49.680;20.074;2023-05-19T01:05:11;97968.13;;;8.61;84.98
34205;BME280;20471;49.680;20.074;2023-05-19T01:07:39;97964.64;;;8.60;84.92
34205;BME280;20471;49.680;20.074;2023-05-19T01:10:08;97961.27;;;8.59;85.04
34205;BME280;20471;49.680;20.074;2023-05-19T01:12:37;97962.58;;;8.60;85.05
34205;BME280;20471;49.680;20.074;2023-05-19T01:15:06;97970.04;;;8.61;85.02
34205;BME280;20471;49.680;20.074;2023-05-19T01:17:47;97973.66;;;8.59;85.13
34205;BME280;20471;49.680;20.074;2023-05-19T01:20:26;97973.12;;;8.59;84.96
34205;BME280;20471;49.680;20.074;2023-05-19T01:29:06;97972.36;;;8.58;84.99
34205;BME280;20471;49.680;20.074;2023-05-19T01:31:41;97979.44;;;8.55;85.03
34205;BME280;20471;49.680;20.074;2023-05-19T01:34:11;97979.37;;;8.55;85.20
34205;BME280;20471;49.680;20.074;2023-05-19T01:36:40;97979.22;;;8.58;85.20
34205;BME280;20471;49.680;20.074;2023-05-19T01:39:10;97979.07;;;8.59;85.05
34205;BME280;20471;49.680;20.074;2023-05-19T01:41:40;97979.30;;;8.58;85.10
34205;BME280;20471;49.680;20.074;2023-05-19T01:44:08;97976.80;;;8.57;85.14
34205;BME280;20471;49.680;20.074;2023-05-19T01:46:37;97978.40;;;8.57;85.15
34205;BME280;20471;49.680;20.074;2023-05-19T01:49:06;97977.94;;;8.57;85.16
34205;BME280;20471;49.680;20.074;2023-05-19T01:51:35;97972.29;;;8.59;85.23
34205;BME280;20471;49.680;20.074;2023-05-19T01:54:03;97974.52;;;8.62;85.17
34205;BME280;20471;49.680;20.074;2023-05-19T01:56:49;97971.68;;;8.65;85.11
34205;BME280;20471;49.680;20.074;2023-05-19T02:01:59;97969.02;;;8.65;84.91
34205;BME280;20471;49.680;20.074;2023-05-19T02:04:47;97967.92;;;8.64;84.91
34205;BME280;20471;49.680;20.074;2023-05-19T02:07:30;97966.66;;;8.62;85.05
34205;BME280;20471;49.680;20.074;2023-05-19T02:10:10;97967.05;;;8.61;85.09
34205;BME280;20471;49.680;20.074;2023-05-19T02:12:39;97960.96;;;8.57;85.14
34205;BME280;20471;49.680;20.074;2023-05-19T02:15:20;97960.63;;;8.56;85.16
34205;BME280;20471;49.680;20.074;2023-05-19T02:17:50;97958.98;;;8.56;85.31
34205;BME280;20471;49.680;20.074;2023-05-19T02:20:20;97961.27;;;8.55;85.21
34205;BME280;20471;49.680;20.074;2023-05-19T02:22:48;97959.73;;;8.54;85.09
34205;BME280;20471;49.680;20.074;2023-05-19T02:25:16;97958.66;;;8.55;85.19
34205;BME280;20471;49.680;20.074;2023-05-19T02:27:45;97959.50;;;8.53;85.20
34205;BME280;20471;49.680;20.074;2023-05-19T02:30:14;97960.42;;;8.52;85.32
34205;BME280;20471;49.680;20.074;2023-05-19T02:32:42;97955.41;;;8.52;85.31
34205;BME280;20471;49.680;20.074;2023-05-19T02:35:12;97953.63;;;8.53;85.40
34205;BME280;20471;49.680;20.074;2023-05-19T02:37:40;97952.94;;;8.54;85.36
34205;BME280;20471;49.680;20.074;2023-05-19T02:40:09;97954.58;;;8.56;85.36
34205;BME280;20471;49.680;20.074;2023-05-19T02:42:37;97954.42;;;8.57;85.27
34205;BME280;20471;49.680;20.074;2023-05-19T02:45:05;97955.54;;;8.58;85.39
34205;BME280;20471;49.680;20.074;2023-05-19T02:47:33;97950.30;;;8.60;85.39
34205;BME280;20471;49.680;20.074;2023-05-19T02:50:02;97950.86;;;8.61;85.27
34205;BME280;20471;49.680;20.074;2023-05-19T02:52:30;97952.38;;;8.59;85.27
34205;BME280;20471;49.680;20.074;2023-05-19T02:54:58;97953.63;;;8.56;85.31
34205;BME280;20471;49.680;20.074;2023-05-19T02:57:27;97950.56;;;8.56;85.41
34205;BME280;20471;49.680;20.074;2023-05-19T02:59:57;97953.17;;;8.57;85.37
34205;BME280;20471;49.680;20.074;2023-05-19T03:02:25;97957.70;;;8.55;85.34
34205;BME280;20471;49.680;20.074;2023-05-19T03:04:53;97953.26;;;8.53;85.40
34205;BME280;20471;49.680;20.074;2023-05-19T03:07:21;97952.91;;;8.50;85.43
34205;BME280;20471;49.680;20.074;2023-05-19T03:09:50;97960.45;;;8.50;85.38
34205;BME280;20471;49.680;20.074;2023-05-19T03:12:19;97959.11;;;8.52;85.27
34205;BME280;20471;49.680;20.074;2023-05-19T03:14:47;97959.02;;;8.54;85.29
34205;BME280;20471;49.680;20.074;2023-05-19T03:17:15;97958.18;;;8.56;85.36
34205;BME280;20471;49.680;20.074;2023-05-19T03:19:43;97958.64;;;8.56;85.31
34205;BME280;20471;49.680;20.074;2023-05-19T03:22:11;97958.89;;;8.57;85.30
34205;BME280;20471;49.680;20.074;2023-05-19T03:24:39;97956.86;;;8.57;85.43
34205;BME280;20471;49.680;20.074;2023-05-19T03:27:07;97960.40;;;8.59;85.33
34205;BME280;20471;49.680;20.074;2023-05-19T03:29:35;97963.01;;;8.61;85.48
34205;BME280;20471;49.680;20.074;2023-05-19T03:32:04;97958.89;;;8.63;85.44
34205;BME280;20471;49.680;20.074;2023-05-19T03:34:32;97956.21;;;8.64;85.39
34205;BME280;20471;49.680;20.074;2023-05-19T03:37:01;97958.34;;;8.68;85.34
34205;BME280;20471;49.680;20.074;2023-05-19T03:39:28;97958.31;;;8.72;85.36
34205;BME280;20471;49.680;20.074;2023-05-19T03:41:57;97956.55;;;8.76;85.27
34205;BME280;20471;49.680;20.074;2023-05-19T03:44:25;97955.83;;;8.81;85.32
34205;BME280;20471;49.680;20.074;2023-05-19T03:46:53;97957.05;;;8.82;85.18
34205;BME280;20471;49.680;20.074;2023-05-19T03:49:21;97956.55;;;8.82;85.18
34205;BME280;20471;49.680;20.074;2023-05-19T03:51:49;97958.19;;;8.80;85.21
34205;BME280;20471;49.680;20.074;2023-05-19T03:54:17;97954.07;;;8.79;85.14
34205;BME280;20471;49.680;20.074;2023-05-19T03:56:46;97958.60;;;8.80;85.28
34205;BME280;20471;49.680;20.074;2023-05-19T03:59:15;97956.92;;;8.83;85.48
34205;BME280;20471;49.680;20.074;2023-05-19T04:01:43;97958.84;;;8.87;85.39
34205;BME280;20471;49.680;20.074;2023-05-19T04:04:11;97956.62;;;8.87;85.47
34205;BME280;20471;49.680;20.074;2023-05-19T04:06:40;97955.08;;;8.90;85.44
34205;BME280;20471;49.680;20.074;2023-05-19T04:09:12;97954.43;;;8.90;85.37
34205;BME280;20471;49.680;20.074;2023-05-19T04:11:41;97954.98;;;8.92;85.37
34205;BME280;20471;49.680;20.074;2023-05-19T04:14:09;97959.67;;;8.91;85.36
34205;BME280;20471;49.680;20.074;2023-05-19T04:16:37;97963.33;;;8.93;85.35
34205;BME280;20471;49.680;20.074;2023-05-19T04:19:06;97963.11;;;8.94;85.21
34205;BME280;20471;49.680;20.074;2023-05-19T04:21:34;97959.03;;;8.98;85.27
34205;BME280;20471;49.680;20.074;2023-05-19T04:24:02;97962.98;;;9.02;85.29
34205;BME280;20471;49.680;20.074;2023-05-19T04:26:31;97961.79;;;9.06;85.25
34205;BME280;20471;49.680;20.074;2023-05-19T04:29:00;97957.31;;;9.08;85.36
34205;BME280;20471;49.680;20.074;2023-05-19T04:31:30;97959.13;;;9.05;85.26
34205;BME280;20471;49.680;20.074;2023-05-19T04:33:59;97960.98;;;9.04;85.38
34205;BME280;20471;49.680;20.074;2023-05-19T04:36:28;97962.25;;;9.07;85.33
34205;BME280;20471;49.680;20.074;2023-05-19T04:38:56;97958.44;;;9.10;85.41
34205;BME280;20471;49.680;20.074;2023-05-19T04:41:27;97962.14;;;9.14;85.25
34205;BME280;20471;49.680;20.074;2023-05-19T04:43:55;97957.48;;;9.15;85.23
34205;BME280;20471;49.680;20.074;2023-05-19T04:46:25;97956.16;;;9.19;85.26
34205;BME280;20471;49.680;20.074;2023-05-19T04:48:55;97960.61;;;9.22;85.15
34205;BME280;20471;49.680;20.074;2023-05-19T04:51:27;97953.58;;;9.23;85.00
34205;BME280;20471;49.680;20.074;2023-05-19T04:53:57;97956.88;;;9.26;84.84
34205;BME280;20471;49.680;20.074;2023-05-19T04:56:25;97955.02;;;9.28;84.82
34205;BME280;20471;49.680;20.074;2023-05-19T04:58:54;97954.10;;;9.29;84.89
34205;BME280;20471;49.680;20.074;2023-05-19T05:01:22;97952.16;;;9.30;84.77
34205;BME280;20471;49.680;20.074;2023-05-19T05:03:53;97953.38;;;9.32;84.54
34205;BME280;20471;49.680;20.074;2023-05-19T05:06:24;97952.85;;;9.32;84.52
34205;BME280;20471;49.680;20.074;2023-05-19T05:08:54;97954.45;;;9.34;84.40
34205;BME280;20471;49.680;20.074;2023-05-19T05:11:22;97956.41;;;9.35;84.49
34205;BME280;20471;49.680;20.074;2023-05-19T05:13:51;97958.18;;;9.37;84.46
34205;BME280;20471;49.680;20.074;2023-05-19T05:16:19;97960.00;;;9.40;84.48
34205;BME280;20471;49.680;20.074;2023-05-19T05:18:48;97960.01;;;9.43;84.46
34205;BME280;20471;49.680;20.074;2023-05-19T05:21:16;97957.29;;;9.44;84.30
34205;BME280;20471;49.680;20.074;2023-05-19T05:23:44;97957.67;;;9.46;84.34
34205;BME280;20471;49.680;20.074;2023-05-19T05:26:16;97962.09;;;9.48;84.16
34205;BME280;20471;49.680;20.074;2023-05-19T05:28:45;97965.64;;;9.49;84.22
34205;BME280;20471;49.680;20.074;2023-05-19T05:31:13;97971.35;;;9.48;84.18
34205;BME280;20471;49.680;20.074;2023-05-19T05:33:41;97967.30;;;9.49;84.27
34205;BME280;20471;49.680;20.074;2023-05-19T05:36:09;97972.48;;;9.52;84.31
34205;BME280;20471;49.680;20.074;2023-05-19T05:38:39;97974.27;;;9.56;84.45
34205;BME280;20471;49.680;20.074;2023-05-19T05:41:07;97972.60;;;9.57;84.11
34205;BME280;20471;49.680;20.074;2023-05-19T05:43:35;97975.73;;;9.56;84.08
34205;BME280;20471;49.680;20.074;2023-05-19T05:46:03;97976.92;;;9.55;84.07
34205;BME280;20471;49.680;20.074;2023-05-19T05:48:31;97976.19;;;9.58;84.06
34205;BME280;20471;49.680;20.074;2023-05-19T05:51:00;97974.56;;;9.61;84.03
34205;BME280;20471;49.680;20.074;2023-05-19T05:53:29;97973.69;;;9.63;83.93
34205;BME280;20471;49.680;20.074;2023-05-19T05:55:59;97978.10;;;9.67;84.01
34205;BME280;20471;49.680;20.074;2023-05-19T05:58:27;97979.48;;;9.71;83.90
34205;BME280;20471;49.680;20.074;2023-05-19T06:00:55;97977.79;;;9.75;83.90
34205;BME280;20471;49.680;20.074;2023-05-19T06:03:25;97984.32;;;9.79;83.88
34205;BME280;20471;49.680;20.074;2023-05-19T06:05:53;97983.95;;;9.84;83.83
34205;BME280;20471;49.680;20.074;2023-05-19T06:08:21;97986.40;;;9.87;83.79
34205;BME280;20471;49.680;20.074;2023-05-19T06:10:49;97985.09;;;9.90;83.53
34205;BME280;20471;49.680;20.074;2023-05-19T06:13:17;97985.06;;;9.92;83.38
34205;BME280;20471;49.680;20.074;2023-05-19T06:15:49;97985.81;;;9.93;83.12
34205;BME280;20471;49.680;20.074;2023-05-19T06:18:17;97986.17;;;9.94;82.97
34205;BME280;20471;49.680;20.074;2023-05-19T06:20:46;97985.73;;;9.95;83.15
34205;BME280;20471;49.680;20.074;2023-05-19T06:23:14;97981.98;;;9.98;83.43
34205;BME280;20471;49.680;20.074;2023-05-19T06:25:42;97983.83;;;10.01;83.40
34205;BME280;20471;49.680;20.074;2023-05-19T06:28:10;97985.77;;;10.06;83.45
34205;BME280;20471;49.680;20.074;2023-05-19T06:30:38;97989.42;;;10.10;83.24
34205;BME280;20471;49.680;20.074;2023-05-19T06:33:06;97988.35;;;10.13;83.27
34205;BME280;20471;49.680;20.074;2023-05-19T06:35:34;97992.38;;;10.16;83.28
34205;BME280;20471;49.680;20.074;2023-05-19T06:38:02;97996.66;;;10.19;83.23
34205;BME280;20471;49.680;20.074;2023-05-19T06:40:31;97995.92;;;10.23;83.35
34205;BME280;20471;49.680;20.074;2023-05-19T06:42:59;97997.90;;;10.25;83.25
34205;BME280;20471;49.680;20.074;2023-05-19T06:45:27;98000.33;;;10.29;83.16
34205;BME280;20471;49.680;20.074;2023-05-19T06:47:55;97998.48;;;10.30;82.96
34205;BME280;20471;49.680;20.074;2023-05-19T06:50:24;97998.50;;;10.33;83.05
34205;BME280;20471;49.680;20.074;2023-05-19T06:52:52;97998.40;;;10.35;83.15
34205;BME280;20471;49.680;20.074;2023-05-19T06:55:23;98000.11;;;10.36;83.07
34205;BME280;20471;49.680;20.074;2023-05-19T06:57:51;97998.49;;;10.36;83.05
34205;BME280;20471;49.680;20.074;2023-05-19T07:00:19;98000.70;;;10.40;82.91
34205;BME280;20471;49.680;20.074;2023-05-19T07:02:47;98000.16;;;10.44;82.65
34205;BME280;20471;49.680;20.074;2023-05-19T07:05:15;98001.40;;;10.50;82.56
34205;BME280;20471;49.680;20.074;2023-05-19T07:07:43;98003.79;;;10.57;82.49
34205;BME280;20471;49.680;20.074;2023-05-19T07:10:12;98007.15;;;10.61;82.29
34205;BME280;20471;49.680;20.074;2023-05-19T07:12:40;98003.10;;;10.66;82.39
34205;BME280;20471;49.680;20.074;2023-05-19T07:15:08;98003.29;;;10.73;82.31
34205;BME280;20471;49.680;20.074;2023-05-19T07:17:37;98000.10;;;10.78;82.09
34205;BME280;20471;49.680;20.074;2023-05-19T07:20:05;98000.02;;;10.83;81.91
34205;BME280;20471;49.680;20.074;2023-05-19T07:22:36;97999.50;;;10.88;81.67
34205;BME280;20471;49.680;20.074;2023-05-19T07:25:08;98000.64;;;10.92;81.28
34205;BME280;20471;49.680;20.074;2023-05-19T07:27:36;97997.89;;;10.95;81.41
34205;BME280;20471;49.680;20.074;2023-05-19T07:30:05;97993.71;;;10.98;81.23
34205;BME280;20471;49.680;20.074;2023-05-19T07:32:33;97989.21;;;11.00;81.08
34205;BME280;20471;49.680;20.074;2023-05-19T07:35:01;97990.73;;;11.03;81.12
34205;BME280;20471;49.680;20.074;2023-05-19T07:37:30;97994.24;;;11.05;80.94
34205;BME280;20471;49.680;20.074;2023-05-19T07:39:58;97995.63;;;11.07;80.77
34205;BME280;20471;49.680;20.074;2023-05-19T07:42:26;97991.98;;;11.08;80.66
34205;BME280;20471;49.680;20.074;2023-05-19T07:44:54;97994.25;;;11.06;80.71
34205;BME280;20471;49.680;20.074;2023-05-19T07:47:22;97996.98;;;11.04;80.64
34205;BME280;20471;49.680;20.074;2023-05-19T07:49:51;97992.33;;;11.05;80.71
34205;BME280;20471;49.680;20.074;2023-05-19T07:52:19;97995.26;;;11.08;80.60
34205;BME280;20471;49.680;20.074;2023-05-19T07:54:47;97994.06;;;11.11;80.50
34205;BME280;20471;49.680;20.074;2023-05-19T07:57:15;97994.78;;;11.15;80.59
34205;BME280;20471;49.680;20.074;2023-05-19T07:59:44;97995.38;;;11.18;80.55
34205;BME280;20471;49.680;20.074;2023-05-19T08:02:12;97995.30;;;11.22;80.59
34205;BME280;20471;49.680;20.074;2023-05-19T08:04:40;97995.79;;;11.25;80.62
34205;BME280;20471;49.680;20.074;2023-05-19T08:07:09;97995.40;;;11.24;80.36
34205;BME280;20471;49.680;20.074;2023-05-19T08:09:37;97997.80;;;11.18;80.54
34205;BME280;20471;49.680;20.074;2023-05-19T08:12:05;97996.14;;;11.19;80.66
34205;BME280;20471;49.680;20.074;2023-05-19T08:14:33;97993.91;;;11.21;80.32
34205;BME280;20471;49.680;20.074;2023-05-19T08:17:01;97995.20;;;11.23;80.22
34205;BME280;20471;49.680;20.074;2023-05-19T08:19:30;97993.98;;;11.23;80.19
34205;BME280;20471;49.680;20.074;2023-05-19T08:21:58;97996.54;;;11.23;80.23
34205;BME280;20471;49.680;20.074;2023-05-19T08:24:27;97994.33;;;11.25;80.28
34205;BME280;20471;49.680;20.074;2023-05-19T08:26:56;97992.92;;;11.27;79.99
34205;BME280;20471;49.680;20.074;2023-05-19T08:29:24;97998.89;;;11.30;80.06
34205;BME280;20471;49.680;20.074;2023-05-19T08:31:52;97996.88;;;11.34;80.10
34205;BME280;20471;49.680;20.074;2023-05-19T08:34:20;97995.34;;;11.38;80.12
34205;BME280;20471;49.680;20.074;2023-05-19T08:36:49;97999.73;;;11.37;80.21
34205;BME280;20471;49.680;20.074;2023-05-19T08:39:17;98001.19;;;11.41;80.19
34205;BME280;20471;49.680;20.074;2023-05-19T08:41:49;97997.51;;;11.46;80.06
34205;BME280;20471;49.680;20.074;2023-05-19T08:44:18;97993.40;;;11.52;80.08
34205;BME280;20471;49.680;20.074;2023-05-19T08:46:46;97998.25;;;11.56;80.08
34205;BME280;20471;49.680;20.074;2023-05-19T08:49:18;97997.45;;;11.61;80.16
34205;BME280;20471;49.680;20.074;2023-05-19T08:51:54;97996.56;;;11.66;79.90
34205;BME280;20471;49.680;20.074;2023-05-19T08:54:34;97997.66;;;11.70;79.92
34205;BME280;20471;49.680;20.074;2023-05-19T08:57:08;97998.32;;;11.76;79.81
34205;BME280;20471;49.680;20.074;2023-05-19T08:59:38;97996.89;;;11.82;79.67
34205;BME280;20471;49.680;20.074;2023-05-19T09:02:07;97997.27;;;11.87;79.51
34205;BME280;20471;49.680;20.074;2023-05-19T09:04:39;97997.95;;;11.89;79.43
34205;BME280;20471;49.680;20.074;2023-05-19T09:07:14;97999.16;;;11.94;79.47
34205;BME280;20471;49.680;20.074;2023-05-19T09:09:42;97992.75;;;12.01;79.51
34205;BME280;20471;49.680;20.074;2023-05-19T09:12:12;97988.02;;;12.08;79.45
34205;BME280;20471;49.680;20.074;2023-05-19T09:14:41;97986.65;;;12.13;79.48
34205;BME280;20471;49.680;20.074;2023-05-19T09:17:09;97987.77;;;12.13;79.24
34205;BME280;20471;49.680;20.074;2023-05-19T09:19:42;97985.66;;;12.15;79.03
34205;BME280;20471;49.680;20.074;2023-05-19T09:22:10;97985.23;;;12.15;79.00
34205;BME280;20471;49.680;20.074;2023-05-19T09:24:40;97988.27;;;12.21;79.02
34205;BME280;20471;49.680;20.074;2023-05-19T09:27:08;97989.33;;;12.28;78.91
34205;BME280;20471;49.680;20.074;2023-05-19T09:29:36;97991.77;;;12.32;78.59
34205;BME280;20471;49.680;20.074;2023-05-19T09:32:04;97990.90;;;12.36;78.64
34205;BME280;20471;49.680;20.074;2023-05-19T09:34:33;97990.79;;;12.41;78.50
34205;BME280;20471;49.680;20.074;2023-05-19T09:37:01;97989.44;;;12.45;78.47
34205;BME280;20471;49.680;20.074;2023-05-19T09:39:29;97990.73;;;12.48;78.62
34205;BME280;20471;49.680;20.074;2023-05-19T09:41:58;97991.61;;;12.50;78.74
34205;BME280;20471;49.680;20.074;2023-05-19T09:44:34;97992.06;;;12.51;78.59
34205;BME280;20471;49.680;20.074;2023-05-19T09:47:02;97991.14;;;12.55;78.32
34205;BME280;20471;49.680;20.074;2023-05-19T09:49:30;97987.64;;;12.60;78.13
34205;BME280;20471;49.680;20.074;2023-05-19T09:52:02;97989.64;;;12.62;77.93
34205;BME280;20471;49.680;20.074;2023-05-19T09:54:32;97992.15;;;12.65;77.85
34205;BME280;20471;49.680;20.074;2023-05-19T09:57:02;97990.83;;;12.68;77.80
34205;BME280;20471;49.680;20.074;2023-05-19T09:59:32;97990.05;;;12.69;77.59
34205;BME280;20471;49.680;20.074;2023-05-19T10:02:02;97986.63;;;12.70;77.89
34205;BME280;20471;49.680;20.074;2023-05-19T10:04:30;97987.88;;;12.71;78.08
34205;BME280;20471;49.680;20.074;2023-05-19T10:06:59;97988.20;;;12.70;78.37
34205;BME280;20471;49.680;20.074;2023-05-19T10:09:31;97987.38;;;12.69;78.24
34205;BME280;20471;49.680;20.074;2023-05-19T10:11:59;97986.48;;;12.64;78.24
34205;BME280;20471;49.680;20.074;2023-05-19T10:14:29;97987.63;;;12.68;78.45
34205;BME280;20471;49.680;20.074;2023-05-19T10:16:59;97988.66;;;12.72;78.42
34205;BME280;20471;49.680;20.074;2023-05-19T10:19:28;97987.04;;;12.73;78.15
34205;BME280;20471;49.680;20.074;2023-05-19T10:21:56;97984.59;;;12.78;78.31
34205;BME280;20471;49.680;20.074;2023-05-19T10:24:25;97984.55;;;12.85;78.22
34205;BME280;20471;49.680;20.074;2023-05-19T10:27:06;97985.80;;;12.91;78.22
34205;BME280;20471;49.680;20.074;2023-05-19T10:29:39;97988.45;;;12.94;77.91
34205;BME280;20471;49.680;20.074;2023-05-19T10:32:15;97987.20;;;12.98;77.77
34205;BME280;20471;49.680;20.074;2023-05-19T10:38:09;97985.66;;;13.09;77.68
34205;BME280;20471;49.680;20.074;2023-05-19T10:40:41;97982.77;;;13.13;77.47
34205;BME280;20471;49.680;20.074;2023-05-19T10:43:43;97984.41;;;13.17;77.58
34205;BME280;20471;49.680;20.074;2023-05-19T10:46:15;97986.45;;;13.22;77.45
34205;BME280;20471;49.680;20.074;2023-05-19T10:48:44;97990.58;;;13.24;77.22
34205;BME280;20471;49.680;20.074;2023-05-19T10:51:13;97985.57;;;13.25;77.05
34205;BME280;20471;49.680;20.074;2023-05-19T10:53:42;97988.52;;;13.27;76.92
34205;BME280;20471;49.680;20.074;2023-05-19T10:56:31;97985.08;;;13.29;76.91
34205;BME280;20471;49.680;20.074;2023-05-19T10:59:03;97982.73;;;13.31;76.95
34205;BME280;20471;49.680;20.074;2023-05-19T11:01:34;97984.52;;;13.36;77.28
34205;BME280;20471;49.680;20.074;2023-05-19T11:04:06;97983.02;;;13.42;77.39
34205;BME280;20471;49.680;20.074;2023-05-19T11:06:36;97981.05;;;13.47;77.14
34205;BME280;20471;49.680;20.074;2023-05-19T11:09:17;97979.57;;;13.51;76.77
34205;BME280;20471;49.680;20.074;2023-05-19T11:11:50;97977.66;;;13.57;77.00
34205;BME280;20471;49.680;20.074;2023-05-19T11:14:21;97980.00;;;13.63;76.77
34205;BME280;20471;49.680;20.074;2023-05-19T11:16:52;97979.48;;;13.67;76.48
34205;BME280;20471;49.680;20.074;2023-05-19T11:19:28;97983.18;;;13.72;76.30
34205;BME280;20471;49.680;20.074;2023-05-19T11:24:42;97982.08;;;13.80;76.30
34205;BME280;20471;49.680;20.074;2023-05-19T11:27:24;97984.92;;;13.87;76.55
34205;BME280;20471;49.680;20.074;2023-05-19T11:29:54;97980.41;;;13.95;76.73
34205;BME280;20471;49.680;20.074;2023-05-19T11:32:29;97980.16;;;14.00;76.46
34205;BME280;20471;49.680;20.074;2023-05-19T11:34:59;97985.14;;;14.06;76.47
34205;BME280;20471;49.680;20.074;2023-05-19T11:37:31;97985.09;;;14.11;76.37
34205;BME280;20471;49.680;20.074;2023-05-19T11:40:03;97982.96;;;14.16;76.21
34205;BME280;20471;49.680;20.074;2023-05-19T11:42:33;97981.45;;;14.18;76.15
34205;BME280;20471;49.680;20.074;2023-05-19T11:45:02;97987.61;;;14.16;76.07
34205;BME280;20471;49.680;20.074;2023-05-19T11:47:31;97984.54;;;14.20;75.92
34205;BME280;20471;49.680;20.074;2023-05-19T11:49:59;97986.87;;;14.25;75.91
34205;BME280;20471;49.680;20.074;2023-05-19T11:52:28;97984.26;;;14.28;75.38
34205;BME280;20471;49.680;20.074;2023-05-19T11:54:59;97984.09;;;14.34;75.37
34205;BME280;20471;49.680;20.074;2023-05-19T11:57:27;97986.52;;;14.39;74.99
34205;BME280;20471;49.680;20.074;2023-05-19T11:59:55;97985.86;;;14.41;74.72
34205;BME280;20471;49.680;20.074;2023-05-19T12:02:24;97988.17;;;14.45;74.48
34205;BME280;20471;49.680;20.074;2023-05-19T12:04:53;97986.49;;;14.47;74.66
34205;BME280;20471;49.680;20.074;2023-05-19T12:07:22;97988.83;;;14.49;74.51
34205;BME280;20471;49.680;20.074;2023-05-19T12:09:51;97987.23;;;14.51;74.26
34205;BME280;20471;49.680;20.074;2023-05-19T12:12:21;97981.83;;;14.51;74.18
34205;BME280;20471;49.680;20.074;2023-05-19T12:14:51;97984.05;;;14.51;73.93
34205;BME280;20471;49.680;20.074;2023-05-19T12:17:20;97985.25;;;14.53;73.91
34205;BME280;20471;49.680;20.074;2023-05-19T12:19:49;97986.23;;;14.55;73.89
34205;BME280;20471;49.680;20.074;2023-05-19T12:22:18;97988.70;;;14.50;73.70
34205;BME280;20471;49.680;20.074;2023-05-19T12:24:46;97984.36;;;14.47;73.56
34205;BME280;20471;49.680;20.074;2023-05-19T12:29:58;97979.29;;;14.42;73.67
34205;BME280;20471;49.680;20.074;2023-05-19T12:32:27;97980.28;;;14.38;73.81
34205;BME280;20471;49.680;20.074;2023-05-19T12:34:55;97976.33;;;14.41;74.00
34205;BME280;20471;49.680;20.074;2023-05-19T12:37:27;97975.23;;;14.46;73.75
34205;BME280;20471;49.680;20.074;2023-05-19T12:39:56;97972.45;;;14.50;73.45
34205;BME280;20471;49.680;20.074;2023-05-19T12:42:28;97972.23;;;14.50;73.24
34205;BME280;20471;49.680;20.074;2023-05-19T12:44:58;97977.86;;;14.49;73.29
34205;BME280;20471;49.680;20.074;2023-05-19T12:47:34;97973.48;;;14.48;73.12
34205;BME280;20471;49.680;20.074;2023-05-19T12:50:07;97974.64;;;14.45;73.12
34205;BME280;20471;49.680;20.074;2023-05-19T12:52:46;97974.55;;;14.45;73.25
34205;BME280;20471;49.680;20.074;2023-05-19T12:55:17;97973.93;;;14.48;73.18
34205;BME280;20471;49.680;20.074;2023-05-19T12:57:50;97975.44;;;14.48;72.98
34205;BME280;20471;49.680;20.074;2023-05-19T13:00:21;97975.52;;;14.44;73.05
34205;BME280;20471;49.680;20.074;2023-05-19T13:03:05;97970.41;;;14.45;73.35
34205;BME280;20471;49.680;20.074;2023-05-19T13:05:38;97969.25;;;14.48;73.36
34205;BME280;20471;49.680;20.074;2023-05-19T13:08:10;97970.70;;;14.46;73.42
34205;BME280;20471;49.680;20.074;2023-05-19T13:10:41;97966.67;;;14.42;73.21
34205;BME280;20471;49.680;20.074;2023-05-19T13:13:09;97966.41;;;14.35;73.41
34205;BME280;20471;49.680;20.074;2023-05-19T13:15:40;97966.82;;;14.30;73.51
34205;BME280;20471;49.680;20.074;2023-05-19T13:18:09;97964.95;;;14.29;73.71
34205;BME280;20471;49.680;20.074;2023-05-19T13:20:39;97962.63;;;14.33;73.91
34205;BME280;20471;49.680;20.074;2023-05-19T13:23:11;97958.95;;;14.39;74.10
34205;BME280;20471;49.680;20.074;2023-05-19T13:25:40;97959.19;;;14.46;74.21